Time;durP1;ratioP1;P1;durP2;ratioP2;P2;SDS_P1;SDS_P2;PMS_P1;PMS_P2;Temp;Humidity;BMP_temperature;BMP_pressure;BME280_temperature;BME280_humidity;BME280_pressure;Samples;Min_cycle;Max_cycle;Signal;HPM_P1;HPM_P2
2023/12/13 00:00:21;;;;;;;1.70;1.60;;;8.70;99.90;;;;;;4994373;28;20038;-93
2023/12/13 00:02:47;;;;;;;1.77;1.67;;;8.60;99.90;;;;;;4969832;28;20031;-91
2023/12/13 00:05:13;;;;;;;0.77;0.68;;;8.70;99.90;;;;;;4992778;28;20045;-86
2023/12/13 00:07:40;;;;;;;0.63;0.63;;;8.70;99.90;;;;;;4996810;28;20018;-82
2023/12/13 00:10:06;;;;;;;0.90;0.90;;;8.70;99.90;;;;;;4989532;28;20019;-87
2023/12/13 00:12:32;;;;;;;0.45;0.45;;;8.70;99.90;;;;;;4990948;28;20030;-87
2023/12/13 00:14:59;;;;;;;2.13;1.13;;;8.70;99.90;;;;;;4965609;28;20043;-93
2023/12/13 00:17:25;;;;;;;0.52;0.52;;;8.70;99.90;;;;;;4963880;28;20039;-91
2023/12/13 00:19:51;;;;;;;0.30;0.30;;;8.70;99.90;;;;;;4962794;28;20487;-93
2023/12/13 00:22:17;;;;;;;0.60;0.60;;;8.70;99.90;;;;;;4968407;28;20030;-94
2023/12/13 00:24:44;;;;;;;2.67;1.73;;;8.70;99.90;;;;;;4953425;28;20065;-90
2023/12/13 00:27:10;;;;;;;0.32;0.32;;;8.70;99.90;;;;;;4956606;28;20031;-93
2023/12/13 00:29:37;;;;;;;1.15;0.82;;;8.70;99.90;;;;;;4962940;28;20035;-92
2023/12/13 00:32:03;;;;;;;0.88;0.60;;;8.60;99.90;;;;;;4946767;28;20038;-94
2023/12/13 00:34:29;;;;;;;1.85;1.73;;;8.60;99.90;;;;;;4968729;28;20037;-93
2023/12/13 00:36:56;;;;;;;1.13;1.00;;;8.70;99.90;;;;;;4941122;28;20500;-93
2023/12/13 00:39:22;;;;;;;2.13;1.17;;;8.70;99.90;;;;;;4962156;28;20495;-93
2023/12/13 00:41:48;;;;;;;0.98;0.98;;;8.70;99.90;;;;;;4948476;28;20050;-94
2023/12/13 00:44:14;;;;;;;1.42;1.27;;;8.70;99.90;;;;;;4956628;28;20074;-93
2023/12/13 00:46:40;;;;;;;0.38;0.38;;;8.70;99.90;;;;;;4949258;28;20066;-95
2023/12/13 00:49:07;;;;;;;2.17;0.98;;;8.70;99.90;;;;;;4963252;28;20043;-92
2023/12/13 00:51:33;;;;;;;3.25;2.13;;;8.80;99.90;;;;;;4949812;28;20043;-94
2023/12/13 00:54:00;;;;;;;0.93;0.68;;;8.80;99.90;;;;;;4966561;28;20103;-94
2023/12/13 00:56:28;;;;;;;2.42;1.17;;;8.80;99.90;;;;;;4968906;28;20031;-95
2023/12/13 00:58:54;;;;;;;4.38;1.38;;;8.80;99.90;;;;;;4955861;28;20047;-94
2023/12/13 01:01:20;;;;;;;1.25;1.02;;;8.80;99.90;;;;;;4964398;28;20046;-93
2023/12/13 01:03:46;;;;;;;1.13;1.13;;;8.80;99.90;;;;;;4966342;28;20027;-91
2023/12/13 01:06:12;;;;;;;2.40;2.10;;;8.80;99.90;;;;;;4965627;28;20039;-92
2023/12/13 01:08:39;;;;;;;1.83;1.52;;;8.80;99.90;;;;;;4945823;29;20035;-91
2023/12/13 01:11:09;;;;;;;0.68;0.68;;;8.80;99.90;;;;;;4957979;28;20043;-91
2023/12/13 01:13:36;;;;;;;0.40;0.32;;;8.70;99.90;;;;;;4948736;28;20058;-88
2023/12/13 01:16:03;;;;;;;0.85;0.68;;;8.70;99.90;;;;;;4947092;28;20047;-91
2023/12/13 01:18:29;;;;;;;1.30;1.20;;;8.70;99.90;;;;;;4966963;28;20042;-93
2023/12/13 01:20:56;;;;;;;0.20;0.20;;;8.60;99.90;;;;;;4966332;28;20355;-92
2023/12/13 01:23:22;;;;;;;0.65;0.52;;;8.60;99.90;;;;;;4959979;28;20034;-94
2023/12/13 01:25:48;;;;;;;0.57;0.57;;;8.50;99.90;;;;;;4972567;28;20043;-93
2023/12/13 01:28:14;;;;;;;2.72;0.65;;;8.50;99.90;;;;;;4955966;28;20057;-93
2023/12/13 01:30:40;;;;;;;2.60;0.68;;;8.40;99.90;;;;;;4977220;28;20035;-92
2023/12/13 01:33:06;;;;;;;0.10;0.10;;;8.50;99.90;;;;;;4976827;28;20043;-92
2023/12/13 01:35:32;;;;;;;12.13;1.45;;;8.40;99.90;;;;;;4972823;28;20043;-93
2023/12/13 01:37:59;;;;;;;8.02;3.67;;;8.40;99.90;;;;;;4974310;28;20039;-90
2023/12/13 01:40:25;;;;;;;4.57;3.35;;;8.40;99.90;;;;;;4973416;28;20035;-92
2023/12/13 01:42:51;;;;;;;3.15;2.92;;;8.40;99.90;;;;;;4963676;28;20035;-91
2023/12/13 01:45:17;;;;;;;5.25;4.57;;;8.40;99.90;;;;;;4949845;28;20047;-90
2023/12/13 01:47:43;;;;;;;2.42;2.22;;;8.50;99.90;;;;;;4964515;28;20043;-90
2023/12/13 01:50:10;;;;;;;2.25;1.30;;;8.40;99.90;;;;;;4969666;28;20030;-91
2023/12/13 01:52:37;;;;;;;2.00;1.90;;;8.40;99.90;;;;;;4967490;28;20031;-92
2023/12/13 01:55:05;;;;;;;1.30;1.20;;;8.40;99.90;;;;;;4966850;28;20042;-89
2023/12/13 01:57:32;;;;;;;1.98;1.05;;;8.40;99.90;;;;;;4965884;28;20437;-86
2023/12/13 01:59:58;;;;;;;2.30;1.30;;;8.40;99.90;;;;;;4956500;28;20058;-90
2023/12/13 02:02:25;;;;;;;0.88;0.88;;;8.30;99.90;;;;;;4967647;28;20038;-89
2023/12/13 02:04:53;;;;;;;0.13;0.13;;;8.30;99.90;;;;;;4948021;28;20400;-88
2023/12/13 02:07:22;;;;;;;0.80;0.63;;;8.30;99.90;;;;;;4965290;28;20473;-86
2023/12/13 02:09:48;;;;;;;0.40;0.40;;;8.40;99.90;;;;;;4965740;28;20030;-90
2023/12/13 02:12:14;;;;;;;0.32;0.32;;;8.40;99.90;;;;;;4972834;28;20031;-89
2023/12/13 02:14:40;;;;;;;0.28;0.28;;;8.50;99.90;;;;;;4952814;28;20050;-85
2023/12/13 02:17:07;;;;;;;0.50;0.50;;;8.50;99.90;;;;;;4986218;28;20015;-86
2023/12/13 02:19:36;;;;;;;0.20;0.20;;;8.50;99.90;;;;;;4988106;28;20029;-83
2023/12/13 02:22:06;;;;;;;0.52;0.52;;;8.40;99.90;;;;;;4992589;28;20015;-87
2023/12/13 02:24:33;;;;;;;0.85;0.60;;;8.40;99.90;;;;;;4984957;28;20050;-86
2023/12/13 02:26:59;;;;;;;1.77;1.00;;;8.40;99.90;;;;;;4962079;28;20035;-84
2023/12/13 02:29:25;;;;;;;0.20;0.20;;;8.40;99.90;;;;;;4964043;28;20050;-86
2023/12/13 02:31:52;;;;;;;0.70;0.70;;;8.30;99.90;;;;;;4968512;28;20042;-84
2023/12/13 02:34:18;;;;;;;0.43;0.43;;;8.30;99.90;;;;;;4965905;28;20038;-86
2023/12/13 02:36:45;;;;;;;2.22;1.17;;;8.30;99.90;;;;;;4962785;28;20035;-83
2023/12/13 02:39:11;;;;;;;0.10;0.10;;;8.20;99.90;;;;;;4938965;28;20043;-82
2023/12/13 02:41:37;;;;;;;0.40;0.40;;;8.10;99.90;;;;;;4960876;28;20035;-84
2023/12/13 02:44:04;;;;;;;0.10;0.10;;;8.20;99.90;;;;;;4940452;28;20073;-84
2023/12/13 02:46:30;;;;;;;0.10;0.10;;;8.10;99.90;;;;;;4967456;28;20499;-84
2023/12/13 02:49:00;;;;;;;0.25;0.25;;;8.00;99.90;;;;;;4960842;28;20492;-85
2023/12/13 02:51:27;;;;;;;0.20;0.20;;;8.00;99.90;;;;;;4949263;28;20106;-85
2023/12/13 02:53:53;;;;;;;0.10;0.10;;;8.00;99.90;;;;;;4964233;28;20026;-84
2023/12/13 02:56:19;;;;;;;0.10;0.10;;;8.10;99.90;;;;;;4967220;28;20058;-85
2023/12/13 02:58:45;;;;;;;0.10;0.10;;;8.10;99.90;;;;;;4960529;28;20034;-84
2023/12/13 03:01:12;;;;;;;0.10;0.10;;;8.10;99.90;;;;;;4964887;28;20042;-85
2023/12/13 03:03:38;;;;;;;4.85;0.90;;;8.10;99.90;;;;;;4968916;28;20035;-83
2023/12/13 03:06:04;;;;;;;0.15;0.15;;;8.10;99.90;;;;;;4973708;28;20035;-83
2023/12/13 03:08:31;;;;;;;0.20;0.20;;;8.20;99.90;;;;;;4962929;28;20477;-84
2023/12/13 03:10:57;;;;;;;0.22;0.22;;;8.10;99.90;;;;;;4960567;28;20039;-84
2023/12/13 03:13:23;;;;;;;0.10;0.10;;;8.10;99.90;;;;;;4948337;28;20054;-81
2023/12/13 03:15:50;;;;;;;0.10;0.10;;;8.10;99.90;;;;;;4966055;28;20031;-84
2023/12/13 03:18:16;;;;;;;0.10;0.10;;;8.20;99.90;;;;;;4966889;28;20039;-84
2023/12/13 03:20:42;;;;;;;0.10;0.10;;;8.20;99.90;;;;;;4963348;28;20396;-84
2023/12/13 03:23:10;;;;;;;0.47;0.47;;;8.10;99.90;;;;;;4966112;28;20493;-83
2023/12/13 03:25:36;;;;;;;12.40;1.05;;;8.10;99.90;;;;;;4963439;28;20062;-83
2023/12/13 03:28:02;;;;;;;0.22;0.22;;;8.10;99.90;;;;;;4965757;28;20034;-83
2023/12/13 03:30:28;;;;;;;0.10;0.10;;;8.10;99.90;;;;;;4962728;28;20035;-84
2023/12/13 03:32:54;;;;;;;0.10;0.10;;;8.00;99.90;;;;;;4965366;28;20388;-83
2023/12/13 03:35:21;;;;;;;0.15;0.15;;;8.00;99.90;;;;;;4952969;28;20050;-81
2023/12/13 03:37:47;;;;;;;0.30;0.30;;;8.00;99.90;;;;;;4967293;28;20931;-81
2023/12/13 03:40:14;;;;;;;0.85;0.75;;;7.90;99.90;;;;;;4964202;28;20054;-83
2023/12/13 03:42:40;;;;;;;2.17;0.90;;;7.90;99.90;;;;;;4960987;28;20453;-82
2023/12/13 03:45:06;;;;;;;0.17;0.17;;;7.90;99.90;;;;;;4956251;28;20053;-82
2023/12/13 03:47:33;;;;;;;0.05;0.05;;;7.90;99.90;;;;;;4957055;28;20047;-82
2023/12/13 03:49:59;;;;;;;0.10;0.10;;;8.00;99.90;;;;;;4954005;28;20400;-82
2023/12/13 03:52:25;;;;;;;0.10;0.10;;;8.00;99.90;;;;;;4954455;28;20034;-82
2023/12/13 03:54:51;;;;;;;0.10;0.10;;;8.00;99.90;;;;;;4961728;28;20054;-82
2023/12/13 03:57:17;;;;;;;0.50;0.45;;;8.00;99.90;;;;;;4971682;28;20381;-81
2023/12/13 03:59:43;;;;;;;0.10;0.10;;;8.10;99.90;;;;;;4956174;28;20476;-81
2023/12/13 04:02:09;;;;;;;0.15;0.15;;;8.10;99.90;;;;;;4968800;28;20050;-82
2023/12/13 04:04:35;;;;;;;0.10;0.10;;;8.10;99.90;;;;;;4943919;28;20050;-82
2023/12/13 04:07:02;;;;;;;1.10;1.00;;;8.10;99.90;;;;;;4969098;28;20030;-81
2023/12/13 04:09:28;;;;;;;0.10;0.10;;;8.10;99.90;;;;;;4970712;28;20357;-82
2023/12/13 04:11:54;;;;;;;0.40;0.40;;;8.20;99.90;;;;;;4962859;28;20031;-81
2023/12/13 04:14:20;;;;;;;0.43;0.43;;;8.20;99.90;;;;;;4961995;28;20046;-82
2023/12/13 04:16:46;;;;;;;0.40;0.15;;;8.20;99.90;;;;;;4959672;28;20042;-81
2023/12/13 04:19:13;;;;;;;0.10;0.10;;;8.20;99.90;;;;;;4966214;28;20042;-82
2023/12/13 04:21:39;;;;;;;0.30;0.30;;;8.20;99.90;;;;;;4965173;28;20057;-81
2023/12/13 04:24:06;;;;;;;0.10;0.10;;;8.10;99.90;;;;;;4951641;28;20035;-81
2023/12/13 04:26:32;;;;;;;0.10;0.10;;;8.10;99.90;;;;;;4961779;28;20396;-82
2023/12/13 04:28:58;;;;;;;0.10;0.10;;;8.10;99.90;;;;;;4981361;28;20045;-82
2023/12/13 04:31:24;;;;;;;0.10;0.10;;;8.00;99.90;;;;;;4982075;28;20102;-80
2023/12/13 04:33:51;;;;;;;1.05;0.68;;;8.00;99.90;;;;;;4982494;28;20038;-81
2023/12/13 04:36:17;;;;;;;0.10;0.10;;;8.00;99.90;;;;;;4974729;28;20043;-81
2023/12/13 04:38:44;;;;;;;10.15;1.30;;;8.00;99.90;;;;;;4964224;28;20043;-80
2023/12/13 04:41:10;;;;;;;1.65;0.38;;;7.90;99.90;;;;;;4965823;28;20394;-81
2023/12/13 04:43:36;;;;;;;0.20;0.20;;;7.90;99.90;;;;;;4961919;28;20039;-79
2023/12/13 04:46:02;;;;;;;0.17;0.17;;;7.80;99.90;;;;;;4949760;28;20053;-80
2023/12/13 04:48:28;;;;;;;0.10;0.10;;;7.80;99.90;;;;;;4960311;28;20050;-80
2023/12/13 04:50:54;;;;;;;0.10;0.10;;;7.80;99.90;;;;;;4962355;28;20043;-80
2023/12/13 04:53:20;;;;;;;0.20;0.20;;;7.80;99.90;;;;;;4964100;28;20039;-81
2023/12/13 04:55:47;;;;;;;0.10;0.10;;;7.80;99.90;;;;;;4960818;28;20043;-81
2023/12/13 04:58:13;;;;;;;0.10;0.10;;;7.70;99.90;;;;;;4963295;28;20081;-81
2023/12/13 05:00:39;;;;;;;1.05;0.73;;;7.70;99.90;;;;;;4972841;28;20487;-81
2023/12/13 05:03:05;;;;;;;0.10;0.10;;;7.70;99.90;;;;;;4967647;28;20035;-81
2023/12/13 05:05:32;;;;;;;0.13;0.13;;;7.60;99.90;;;;;;4967516;28;20042;-80
2023/12/13 05:07:58;;;;;;;0.10;0.10;;;7.60;99.90;;;;;;4960409;28;20437;-80
2023/12/13 05:10:24;;;;;;;0.68;0.65;;;7.60;99.90;;;;;;4967282;28;20049;-79
2023/12/13 05:12:50;;;;;;;0.10;0.10;;;7.60;99.90;;;;;;4965565;28;20030;-79
2023/12/13 05:15:16;;;;;;;17.20;1.33;;;7.60;99.90;;;;;;4968276;28;20042;-78
2023/12/13 05:17:42;;;;;;;0.30;0.30;;;7.60;99.90;;;;;;4966420;28;20054;-78
2023/12/13 05:20:10;;;;;;;0.10;0.10;;;7.60;99.90;;;;;;4970239;28;20054;-78
2023/12/13 05:22:36;;;;;;;0.13;0.13;;;7.60;99.90;;;;;;4966962;28;20035;-79
2023/12/13 05:25:02;;;;;;;1.00;0.60;;;7.60;99.90;;;;;;4968236;28;20039;-79
2023/12/13 05:27:29;;;;;;;0.10;0.10;;;7.60;99.90;;;;;;4969273;28;20042;-78
2023/12/13 05:29:55;;;;;;;0.20;0.20;;;7.60;99.90;;;;;;4963942;28;20413;-77
2023/12/13 05:32:21;;;;;;;0.52;0.52;;;7.60;99.90;;;;;;4966335;28;20030;-78
2023/12/13 05:34:47;;;;;;;0.22;0.22;;;7.60;99.90;;;;;;4949758;28;20030;-77
2023/12/13 05:37:13;;;;;;;0.52;0.52;;;7.60;99.90;;;;;;4965996;28;20049;-78
2023/12/13 05:39:40;;;;;;;2.63;0.95;;;7.70;99.90;;;;;;4966671;28;20027;-77
2023/12/13 05:42:06;;;;;;;0.10;0.10;;;7.60;99.90;;;;;;4962976;28;20031;-78
2023/12/13 05:44:33;;;;;;;0.10;0.10;;;7.60;99.90;;;;;;4966614;28;20034;-78
2023/12/13 05:47:00;;;;;;;0.10;0.10;;;7.60;99.90;;;;;;4966236;28;20063;-78
2023/12/13 05:49:26;;;;;;;0.20;0.20;;;7.60;99.90;;;;;;4968578;28;20039;-78
2023/12/13 05:51:53;;;;;;;0.50;0.40;;;7.60;99.90;;;;;;4964869;28;20054;-78
2023/12/13 05:54:19;;;;;;;1.02;0.80;;;7.70;99.90;;;;;;4966930;28;20473;-78
2023/12/13 05:56:46;;;;;;;0.10;0.10;;;7.70;99.90;;;;;;4968477;28;20039;-78
2023/12/13 05:59:12;;;;;;;0.20;0.20;;;7.70;99.90;;;;;;4967404;28;20050;-78
2023/12/13 06:01:38;;;;;;;0.20;0.20;;;7.60;99.90;;;;;;4965952;28;20034;-79
2023/12/13 06:04:04;;;;;;;0.20;0.20;;;7.70;99.90;;;;;;4964740;28;20027;-78
2023/12/13 06:06:31;;;;;;;0.68;0.68;;;7.60;99.90;;;;;;4968114;28;20051;-78
2023/12/13 06:08:57;;;;;;;0.20;0.10;;;7.70;99.90;;;;;;4965307;28;20389;-78
2023/12/13 06:11:23;;;;;;;0.90;0.63;;;7.60;99.90;;;;;;4969460;28;20357;-85
2023/12/13 06:13:50;;;;;;;0.30;0.30;;;7.70;99.90;;;;;;4943307;29;20046;-78
2023/12/13 06:16:16;;;;;;;0.20;0.20;;;7.60;99.90;;;;;;4969130;28;20361;-81
2023/12/13 06:18:42;;;;;;;0.80;0.77;;;7.60;99.90;;;;;;4966101;28;20054;-78
2023/12/13 06:21:08;;;;;;;0.43;0.43;;;7.60;99.90;;;;;;4966086;28;20270;-78
2023/12/13 06:23:35;;;;;;;0.50;0.50;;;7.70;99.90;;;;;;4967080;28;20409;-78
2023/12/13 06:26:01;;;;;;;0.10;0.10;;;7.70;99.90;;;;;;4963938;28;20482;-78
2023/12/13 06:28:27;;;;;;;0.20;0.20;;;7.70;99.90;;;;;;4967381;28;20038;-78
2023/12/13 06:30:53;;;;;;;0.52;0.47;;;7.70;99.90;;;;;;4967770;28;20039;-78
2023/12/13 06:33:19;;;;;;;17.90;1.65;;;7.70;99.90;;;;;;4965929;28;20054;-77
2023/12/13 06:35:46;;;;;;;0.40;0.22;;;7.70;99.90;;;;;;4960127;28;20041;-78
2023/12/13 06:38:12;;;;;;;0.10;0.10;;;7.70;99.90;;;;;;4967316;28;20042;-78
2023/12/13 06:40:38;;;;;;;0.30;0.30;;;7.70;99.90;;;;;;4968903;28;20045;-78
2023/12/13 06:43:05;;;;;;;0.10;0.10;;;7.70;99.90;;;;;;4964293;28;20035;-78
2023/12/13 06:45:31;;;;;;;0.45;0.45;;;7.70;99.90;;;;;;4959585;28;20039;-78
2023/12/13 06:47:57;;;;;;;1.13;0.52;;;7.70;99.90;;;;;;4955997;28;20058;-78
2023/12/13 06:50:24;;;;;;;3.28;0.52;;;7.70;99.90;;;;;;4968942;28;20027;-78
2023/12/13 06:52:51;;;;;;;1.45;0.85;;;7.70;99.90;;;;;;4966516;28;20110;-77
2023/12/13 06:55:18;;;;;;;0.47;0.47;;;7.70;99.90;;;;;;4966258;28;20031;-78
2023/12/13 06:57:45;;;;;;;0.28;0.28;;;7.70;99.90;;;;;;4965961;28;20034;-78
2023/12/13 07:00:12;;;;;;;1.55;1.20;;;7.70;99.90;;;;;;4968036;28;20794;-78
2023/12/13 07:02:39;;;;;;;0.10;0.10;;;7.70;99.90;;;;;;4965950;28;20041;-78
2023/12/13 07:05:07;;;;;;;3.58;1.63;;;7.70;99.90;;;;;;4961426;28;20031;-78
2023/12/13 07:07:34;;;;;;;0.57;0.57;;;7.70;99.90;;;;;;4961580;28;20038;-78
2023/12/13 07:10:00;;;;;;;0.10;0.10;;;7.70;99.90;;;;;;4965584;28;20054;-78
2023/12/13 07:12:28;;;;;;;0.47;0.47;;;7.70;99.90;;;;;;4966866;28;20400;-77
2023/12/13 07:14:56;;;;;;;0.43;0.22;;;7.70;99.90;;;;;;4964927;28;20045;-77
2023/12/13 07:17:23;;;;;;;0.10;0.10;;;7.70;99.90;;;;;;4962276;28;20032;-78
2023/12/13 07:19:50;;;;;;;0.57;0.50;;;7.80;99.90;;;;;;4961894;28;20043;-77
2023/12/13 07:22:18;;;;;;;0.28;0.28;;;7.70;99.90;;;;;;4962314;28;20030;-77
2023/12/13 07:24:45;;;;;;;0.40;0.40;;;7.70;99.90;;;;;;4966138;28;20046;-78
2023/12/13 07:27:11;;;;;;;0.30;0.20;;;7.70;99.90;;;;;;4962514;28;20049;-78
2023/12/13 07:29:41;;;;;;;5.00;0.75;;;7.70;99.90;;;;;;4960933;28;20034;-78
2023/12/13 07:32:11;;;;;;;0.20;0.20;;;7.80;99.90;;;;;;4966408;28;20034;-77
2023/12/13 07:34:37;;;;;;;1.35;0.85;;;7.80;99.90;;;;;;4964285;28;20028;-78
2023/12/13 07:37:04;;;;;;;0.55;0.45;;;7.80;99.90;;;;;;4960356;28;20491;-77
2023/12/13 07:39:35;;;;;;;1.08;0.32;;;7.80;99.90;;;;;;4961238;28;20035;-77
2023/12/13 07:42:01;;;;;;;0.38;0.35;;;7.70;99.90;;;;;;4966283;28;20066;-78
2023/12/13 07:44:28;;;;;;;0.65;0.57;;;7.70;99.90;;;;;;4968475;28;20046;-78
2023/12/13 07:46:54;;;;;;;0.85;0.73;;;7.70;99.90;;;;;;4966103;28;20465;-78
2023/12/13 07:49:20;;;;;;;2.45;0.65;;;7.70;99.90;;;;;;4967061;28;20043;-78
2023/12/13 07:51:46;;;;;;;0.70;0.68;;;7.60;99.90;;;;;;4960528;28;20035;-77
2023/12/13 07:54:16;;;;;;;0.68;0.68;;;7.60;99.90;;;;;;4966709;28;20031;-78
2023/12/13 07:56:42;;;;;;;0.47;0.47;;;7.60;99.90;;;;;;4965658;28;20039;-78
2023/12/13 07:59:08;;;;;;;10.85;1.23;;;7.60;99.90;;;;;;4964019;28;20362;-78
2023/12/13 08:01:35;;;;;;;1.65;0.75;;;7.60;99.90;;;;;;4961407;28;20041;-74
2023/12/13 08:04:01;;;;;;;1.02;0.98;;;7.70;99.90;;;;;;4963915;28;20027;-74
2023/12/13 08:06:27;;;;;;;0.57;0.38;;;7.70;99.90;;;;;;4961510;28;20039;-75
2023/12/13 08:08:55;;;;;;;1.23;0.80;;;7.70;99.90;;;;;;4959957;28;20039;-74
2023/12/13 08:11:21;;;;;;;0.10;0.10;;;7.70;99.90;;;;;;4960011;28;20468;-74
2023/12/13 08:13:47;;;;;;;0.17;0.17;;;7.80;99.90;;;;;;4964220;28;20039;-75
2023/12/13 08:16:13;;;;;;;0.15;0.15;;;7.80;99.90;;;;;;4964333;28;20421;-75
2023/12/13 08:18:39;;;;;;;0.98;0.88;;;7.90;99.90;;;;;;4964444;28;20508;-75
2023/12/13 08:21:06;;;;;;;0.10;0.10;;;7.90;99.90;;;;;;4958333;28;20047;-74
2023/12/13 08:23:33;;;;;;;0.82;0.65;;;7.90;99.90;;;;;;4959461;28;20031;-74
2023/12/13 08:25:59;;;;;;;1.38;0.65;;;8.00;99.90;;;;;;4963493;28;20419;-74
2023/12/13 08:28:25;;;;;;;0.43;0.43;;;8.00;99.90;;;;;;4946892;28;20473;-74
2023/12/13 08:30:51;;;;;;;14.20;1.70;;;8.10;99.90;;;;;;4960924;28;20034;-74
2023/12/13 08:33:17;;;;;;;0.20;0.20;;;8.10;99.90;;;;;;4957066;28;20035;-74
2023/12/13 08:35:44;;;;;;;0.32;0.32;;;8.10;99.90;;;;;;4965808;28;20061;-73
2023/12/13 08:38:10;;;;;;;0.25;0.25;;;8.20;99.90;;;;;;4964641;28;20484;-74
2023/12/13 08:40:36;;;;;;;0.20;0.20;;;8.30;99.90;;;;;;4964595;28;20057;-74
2023/12/13 08:43:02;;;;;;;0.10;0.10;;;8.40;99.90;;;;;;4956573;28;20035;-74
2023/12/13 08:45:29;;;;;;;0.70;0.70;;;8.40;99.90;;;;;;4964762;28;20468;-74
2023/12/13 08:47:55;;;;;;;0.35;0.35;;;8.50;99.90;;;;;;4950695;28;20051;-74
2023/12/13 08:50:21;;;;;;;0.40;0.40;;;8.60;99.90;;;;;;4965377;28;20042;-74
2023/12/13 08:52:47;;;;;;;0.10;0.10;;;8.60;99.90;;;;;;4960207;28;20468;-74
2023/12/13 08:55:14;;;;;;;0.20;0.20;;;8.70;99.90;;;;;;4960700;28;20031;-74
2023/12/13 08:57:40;;;;;;;0.22;0.22;;;8.70;99.90;;;;;;4964507;28;20423;-74
2023/12/13 09:00:07;;;;;;;0.30;0.30;;;8.70;99.90;;;;;;4965850;28;20035;-74
2023/12/13 09:02:33;;;;;;;0.50;0.50;;;8.70;79.40;;;;;;4962956;28;20035;-74
2023/12/13 09:05:00;;;;;;;0.13;0.13;;;8.80;27.90;;;;;;4959843;28;20046;-74
2023/12/13 09:07:26;;;;;;;0.65;0.65;;;8.90;3.60;;;;;;4964681;28;20055;-73
2023/12/13 09:09:53;;;;;;;0.55;0.55;;;8.90;1.00;;;;;;4966420;28;20129;-73
2023/12/13 09:12:19;;;;;;;0.28;0.28;;;9.00;1.00;;;;;;4964026;28;20054;-73
2023/12/13 09:14:45;;;;;;;0.68;0.55;;;9.00;1.00;;;;;;4958095;28;20032;-73
2023/12/13 09:17:11;;;;;;;1.17;0.57;;;9.10;1.00;;;;;;4962323;28;20039;-74
2023/12/13 09:19:38;;;;;;;0.10;0.10;;;9.10;1.00;;;;;;4963020;28;20055;-74
2023/12/13 09:22:04;;;;;;;1.00;0.80;;;9.10;1.00;;;;;;4945976;28;20035;-74
2023/12/13 09:24:30;;;;;;;0.10;0.10;;;9.20;99.90;;;;;;4951374;28;20036;-73
2023/12/13 09:26:58;;;;;;;0.35;0.28;;;9.20;99.90;;;;;;4962048;28;20373;-73
2023/12/13 09:29:24;;;;;;;1.27;0.85;;;9.30;99.90;;;;;;4962896;28;20031;-74
2023/12/13 09:31:50;;;;;;;0.55;0.55;;;9.50;99.90;;;;;;4965036;28;20055;-74
2023/12/13 09:34:16;;;;;;;0.10;0.10;;;9.70;99.90;;;;;;4963898;28;20053;-73
2023/12/13 09:36:42;;;;;;;11.77;0.75;;;9.90;99.90;;;;;;4959566;28;20042;-73
2023/12/13 09:39:08;;;;;;;0.10;0.10;;;10.10;99.90;;;;;;4962096;28;20047;-74
2023/12/13 09:41:54;;;;;;;0.52;0.30;;;10.20;99.90;;;;;;4964450;28;20038;-73
2023/12/13 09:44:23;;;;;;;0.20;0.20;;;10.50;99.90;;;;;;4967065;28;20038;-74
2023/12/13 09:46:52;;;;;;;0.20;0.20;;;10.40;99.90;;;;;;4960139;28;20063;-73
2023/12/13 09:49:20;;;;;;;0.22;0.22;;;10.30;99.90;;;;;;4966753;28;20047;-74
2023/12/13 09:51:49;;;;;;;0.10;0.10;;;10.30;99.90;;;;;;4967390;28;20039;-73
2023/12/13 09:54:15;;;;;;;0.25;0.25;;;10.30;98.90;;;;;;4966205;28;20046;-73
2023/12/13 09:56:41;;;;;;;2.22;0.28;;;10.20;91.00;;;;;;4962710;28;20042;-75
2023/12/13 09:59:08;;;;;;;0.40;0.40;;;10.10;98.80;;;;;;4965631;28;20026;-74
2023/12/13 10:01:34;;;;;;;0.10;0.10;;;10.10;99.90;;;;;;4965312;28;20030;-74
2023/12/13 10:04:00;;;;;;;0.22;0.22;;;10.10;99.90;;;;;;4969485;28;20460;-74
2023/12/13 10:06:27;;;;;;;0.52;0.35;;;10.10;99.90;;;;;;4966020;28;20454;-74
2023/12/13 10:08:57;;;;;;;1.35;1.08;;;10.20;99.90;;;;;;4963312;28;20511;-75
2023/12/13 10:11:23;;;;;;;0.13;0.13;;;10.20;99.90;;;;;;4947568;28;20034;-75
2023/12/13 10:13:50;;;;;;;0.73;0.40;;;10.30;99.90;;;;;;4967893;28;20046;-75
2023/12/13 10:16:16;;;;;;;0.10;0.10;;;10.20;99.90;;;;;;4967448;28;20035;-76
2023/12/13 10:18:43;;;;;;;4.50;0.63;;;10.30;99.90;;;;;;4963604;28;20043;-75
2023/12/13 10:21:10;;;;;;;0.15;0.15;;;10.20;99.90;;;;;;4963462;28;20046;-76
2023/12/13 10:23:38;;;;;;;2.15;1.00;;;10.30;96.70;;;;;;4964265;28;20492;-75
2023/12/13 10:26:05;;;;;;;0.32;0.32;;;10.20;65.30;;;;;;4965986;28;20034;-74
2023/12/13 10:28:35;;;;;;;0.43;0.43;;;10.20;81.50;;;;;;4964573;28;20042;-75
2023/12/13 10:31:02;;;;;;;0.30;0.30;;;10.20;90.00;;;;;;4963593;28;20036;-75
2023/12/13 10:33:29;;;;;;;0.60;0.55;;;10.20;43.60;;;;;;4967042;28;20039;-74
2023/12/13 10:35:57;;;;;;;0.40;0.40;;;10.30;49.90;;;;;;4968012;28;20038;-76
2023/12/13 10:38:25;;;;;;;0.90;0.30;;;10.30;38.50;;;;;;4956873;28;20372;-74
2023/12/13 10:40:53;;;;;;;0.28;0.28;;;10.40;43.60;;;;;;4964037;28;20023;-75
2023/12/13 10:43:20;;;;;;;0.20;0.20;;;10.50;53.70;;;;;;4964934;28;20031;-74
2023/12/13 10:46:00;;;;;;;0.10;0.10;;;10.50;21.10;;;;;;4961383;28;20039;-74
2023/12/13 10:48:47;;;;;;;0.47;0.47;;;10.50;54.50;;;;;;4969247;28;20046;-74
2023/12/13 10:51:13;;;;;;;2.67;0.93;;;10.60;35.00;;;;;;4963810;28;20050;-74
2023/12/13 10:53:42;;;;;;;0.63;0.63;;;10.80;56.00;;;;;;4964040;28;20039;-74
2023/12/13 10:56:08;;;;;;;0.10;0.10;;;11.00;60.00;;;;;;4966676;28;20043;-74
2023/12/13 10:58:36;;;;;;;0.22;0.22;;;11.30;3.30;;;;;;4965992;28;20035;-75
2023/12/13 11:01:03;;;;;;;0.10;0.10;;;11.40;1.00;;;;;;4963458;28;20046;-74
2023/12/13 11:03:54;;;;;;;0.73;0.68;;;11.60;1.00;;;;;;4958811;28;20031;-74
2023/12/13 11:06:21;;;;;;;0.65;0.65;;;11.90;1.00;;;;;;4965167;28;20066;-74
2023/12/13 11:08:47;;;;;;;0.90;0.55;;;11.80;1.00;;;;;;4967294;28;20366;-74
2023/12/13 11:11:16;;;;;;;0.10;0.10;;;11.70;1.00;;;;;;4966729;28;20030;-74
2023/12/13 11:13:50;;;;;;;0.50;0.50;;;11.50;1.00;;;;;;4963955;28;20039;-74
2023/12/13 11:16:20;;;;;;;0.60;0.57;;;11.50;1.00;;;;;;4968102;28;20043;-74
2023/12/13 11:18:49;;;;;;;0.10;0.10;;;11.50;1.00;;;;;;4967108;28;20396;-74
2023/12/13 11:21:31;;;;;;;0.17;0.17;;;11.60;1.00;;;;;;4967435;28;20035;-74
2023/12/13 11:24:15;;;;;;;0.85;0.70;;;11.70;1.00;;;;;;4962031;28;20034;-74
2023/12/13 11:26:45;;;;;;;0.30;0.30;;;11.70;1.00;;;;;;4966535;28;20046;-75
2023/12/13 11:29:15;;;;;;;0.97;0.67;;;11.40;1.00;;;;;;4966716;28;20054;-74
2023/12/13 11:31:53;;;;;;;0.57;0.57;;;11.30;1.00;;;;;;4963722;28;20050;-74
2023/12/13 11:34:42;;;;;;;0.30;0.30;;;11.20;1.00;;;;;;4958332;28;20385;-74
2023/12/13 11:37:12;;;;;;;1.13;1.02;;;11.10;1.00;;;;;;4963124;28;20042;-73
2023/12/13 11:39:42;;;;;;;0.38;0.38;;;11.20;1.00;;;;;;4967104;28;20039;-73
2023/12/13 11:42:10;;;;;;;0.10;0.10;;;11.40;1.00;;;;;;4963995;28;20026;-72
2023/12/13 11:44:38;;;;;;;0.10;0.10;;;11.50;1.00;;;;;;4961415;28;20116;-73
2023/12/13 11:47:06;;;;;;;0.10;0.10;;;11.50;1.00;;;;;;4963131;28;20070;-72
2023/12/13 11:49:33;;;;;;;0.30;0.30;;;11.50;1.00;;;;;;4966097;28;20038;-73
2023/12/13 11:52:05;;;;;;;4.82;3.28;;;11.40;1.00;;;;;;4966406;28;20396;-73
2023/12/13 11:54:33;;;;;;;0.35;0.30;;;11.40;1.00;;;;;;4963665;28;20388;-73
2023/12/13 11:56:59;;;;;;;2.25;1.63;;;11.30;1.00;;;;;;4962745;28;20384;-73
2023/12/13 11:59:25;;;;;;;0.57;0.57;;;11.20;1.00;;;;;;4962479;28;20045;-73
2023/12/13 12:01:52;;;;;;;0.75;0.70;;;11.10;1.00;;;;;;4965075;28;20388;-73
2023/12/13 12:04:19;;;;;;;0.20;0.20;;;11.10;1.00;;;;;;4960777;28;20035;-73
2023/12/13 12:06:49;;;;;;;0.17;0.17;;;11.10;1.00;;;;;;4957468;28;20034;-73
2023/12/13 12:09:16;;;;;;;0.30;0.30;;;11.20;1.00;;;;;;4962723;28;20034;-74
2023/12/13 12:11:43;;;;;;;0.10;0.10;;;11.30;1.00;;;;;;4967076;28;20035;-73
2023/12/13 12:14:10;;;;;;;0.10;0.10;;;11.20;1.00;;;;;;4961964;28;20039;-73
2023/12/13 12:16:37;;;;;;;0.13;0.13;;;11.20;1.00;;;;;;4961991;28;20483;-73
2023/12/13 12:19:06;;;;;;;0.10;0.10;;;11.20;1.00;;;;;;4962065;28;20042;-74
2023/12/13 12:21:34;;;;;;;0.77;0.75;;;11.20;1.00;;;;;;4964386;28;20031;-73
2023/12/13 12:24:02;;;;;;;0.30;0.20;;;11.20;1.00;;;;;;4964373;28;20042;-73
2023/12/13 12:26:29;;;;;;;1.08;0.90;;;11.10;1.00;;;;;;4964689;28;20484;-73
2023/12/13 12:28:55;;;;;;;0.82;0.63;;;11.10;1.00;;;;;;4960433;28;20035;-73
2023/12/13 12:31:21;;;;;;;0.10;0.10;;;11.10;1.00;;;;;;4961331;28;20471;-73
2023/12/13 12:33:55;;;;;;;0.30;0.30;;;11.00;1.00;;;;;;4965208;28;20042;-73
2023/12/13 12:36:21;;;;;;;2.88;0.57;;;11.10;1.00;;;;;;4960044;28;20043;-73
2023/12/13 12:38:48;;;;;;;0.30;0.30;;;11.10;99.90;;;;;;4964016;28;20041;-73
2023/12/13 12:41:15;;;;;;;0.10;0.10;;;11.20;99.90;;;;;;4961520;28;20036;-73
2023/12/13 12:43:41;;;;;;;1.27;0.35;;;11.10;99.90;;;;;;4963261;28;20050;-73
2023/12/13 12:46:08;;;;;;;3.63;0.98;;;11.10;99.90;;;;;;4964125;28;20127;-73
2023/12/13 12:48:34;;;;;;;0.75;0.32;;;11.10;99.90;;;;;;4962997;28;20047;-74
2023/12/13 12:51:01;;;;;;;0.25;0.25;;;11.00;99.90;;;;;;4960449;28;20054;-73
2023/12/13 12:53:27;;;;;;;0.47;0.47;;;11.00;99.90;;;;;;4963714;28;20462;-74